sensor_id;sensor_type;location;lat;lon;timestamp;pressure;altitude;pressure_sealevel;temperature;humidity
59787;BME280;45672;51.612;5.536;2023-04-25T00:01:02;100900.44;;;7.08;100.00
59787;BME280;45672;51.612;5.536;2023-04-25T00:03:27;100905.25;;;7.03;100.00
59787;BME280;45672;51.612;5.536;2023-04-25T00:05:54;100901.03;;;6.91;100.00
59787;BME280;45672;51.612;5.536;2023-04-25T00:08:22;100899.63;;;6.87;100.00
59787;BME280;45672;51.612;5.536;2023-04-25T00:10:47;100906.25;;;6.81;100.00
59787;BME280;45672;51.612;5.536;2023-04-25T00:13:14;100908.44;;;6.76;100.00
59787;BME280;45672;51.612;5.536;2023-04-25T00:15:39;100914.25;;;6.70;100.00
59787;BME280;45672;51.612;5.536;2023-04-25T00:18:06;100917.03;;;6.68;100.00
59787;BME280;45672;51.612;5.536;2023-04-25T00:20:32;100919.06;;;6.65;100.00
59787;BME280;45672;51.612;5.536;2023-04-25T00:22:57;100916.00;;;6.60;100.00
59787;BME280;45672;51.612;5.536;2023-04-25T00:25:22;100922.50;;;6.55;100.00
59787;BME280;45672;51.612;5.536;2023-04-25T00:27:48;100921.19;;;6.50;100.00
59787;BME280;45672;51.612;5.536;2023-04-25T00:30:14;100925.06;;;6.46;100.00
59787;BME280;45672;51.612;5.536;2023-04-25T00:32:39;100933.25;;;6.43;100.00
59787;BME280;45672;51.612;5.536;2023-04-25T00:35:05;100924.84;;;6.37;100.00
59787;BME280;45672;51.612;5.536;2023-04-25T00:37:31;100913.34;;;6.27;100.00
59787;BME280;45672;51.612;5.536;2023-04-25T00:39:58;100914.78;;;6.31;100.00
59787;BME280;45672;51.612;5.536;2023-04-25T00:42:25;100912.25;;;6.30;100.00
59787;BME280;45672;51.612;5.536;2023-04-25T00:44:52;100918.13;;;6.33;100.00
59787;BME280;45672;51.612;5.536;2023-04-25T00:47:17;100912.00;;;6.33;100.00
59787;BME280;45672;51.612;5.536;2023-04-25T00:49:43;100909.50;;;6.31;100.00
59787;BME280;45672;51.612;5.536;2023-04-25T00:52:08;100917.28;;;6.33;100.00
59787;BME280;45672;51.612;5.536;2023-04-25T00:54:34;100913.78;;;6.32;100.00
59787;BME280;45672;51.612;5.536;2023-04-25T00:56:59;100912.97;;;6.32;100.00
59787;BME280;45672;51.612;5.536;2023-04-25T00:59:26;100909.50;;;6.31;100.00
59787;BME280;45672;51.612;5.536;2023-04-25T01:01:53;100912.97;;;6.32;100.00
59787;BME280;45672;51.612;5.536;2023-04-25T01:04:18;100912.25;;;6.30;100.00
59787;BME280;45672;51.612;5.536;2023-04-25T01:06:43;100914.44;;;6.25;100.00
59787;BME280;45672;51.612;5.536;2023-04-25T01:09:09;100910.09;;;6.24;100.00
59787;BME280;45672;51.612;5.536;2023-04-25T01:11:35;100918.28;;;6.20;100.00
59787;BME280;45672;51.612;5.536;2023-04-25T01:14:01;100916.59;;;6.19;100.00
59787;BME280;45672;51.612;5.536;2023-04-25T01:16:27;100920.44;;;6.15;100.00
59787;BME280;45672;51.612;5.536;2023-04-25T01:18:53;100926.13;;;6.11;100.00
59787;BME280;45672;51.612;5.536;2023-04-25T01:21:19;100917.97;;;6.02;100.00
59787;BME280;45672;51.612;5.536;2023-04-25T01:23:44;100921.47;;;6.03;100.00
59787;BME280;45672;51.612;5.536;2023-04-25T01:26:11;100924.94;;;6.03;100.00
59787;BME280;45672;51.612;5.536;2023-04-25T01:28:37;100936.44;;;6.02;100.00
59787;BME280;45672;51.612;5.536;2023-04-25T01:31:06;100936.94;;;6.08;100.00
59787;BME280;45672;51.612;5.536;2023-04-25T01:33:31;100929.97;;;6.07;100.00
59787;BME280;45672;51.612;5.536;2023-04-25T01:35:57;100934.41;;;6.17;100.00
59787;BME280;45672;51.612;5.536;2023-04-25T01:38:22;100928.84;;;6.20;100.00
59787;BME280;45672;51.612;5.536;2023-04-25T01:40:49;100936.28;;;6.27;100.00
59787;BME280;45672;51.612;5.536;2023-04-25T01:43:15;100934.22;;;6.30;100.00
59787;BME280;45672;51.612;5.536;2023-04-25T01:45:41;100939.75;;;6.38;100.00
59787;BME280;45672;51.612;5.536;2023-04-25T01:48:08;100942.00;;;6.43;100.00
59787;BME280;45672;51.612;5.536;2023-04-25T01:50:34;100934.91;;;6.44;100.00
59787;BME280;45672;51.612;5.536;2023-04-25T01:52:59;100938.25;;;6.46;100.00
59787;BME280;45672;51.612;5.536;2023-04-25T01:55:26;100933.94;;;6.45;100.00
59787;BME280;45672;51.612;5.536;2023-04-25T01:57:52;100943.81;;;6.43;100.00
59787;BME280;45672;51.612;5.536;2023-04-25T02:00:17;100938.41;;;6.44;100.00
59787;BME280;45672;51.612;5.536;2023-04-25T02:02:43;100943.81;;;6.43;100.00
59787;BME280;45672;51.612;5.536;2023-04-25T02:05:08;100945.72;;;6.41;100.00
59787;BME280;45672;51.612;5.536;2023-04-25T02:07:34;100948.63;;;6.37;100.00
59787;BME280;45672;51.612;5.536;2023-04-25T02:09:59;100949.84;;;6.33;100.00
59787;BME280;45672;51.612;5.536;2023-04-25T02:12:24;100942.53;;;6.26;100.00
59787;BME280;45672;51.612;5.536;2023-04-25T02:14:51;100948.53;;;6.28;100.00
59787;BME280;45672;51.612;5.536;2023-04-25T02:17:16;100952.84;;;6.29;100.00
59787;BME280;45672;51.612;5.536;2023-04-25T02:19:43;100954.78;;;6.27;100.00
59787;BME280;45672;51.612;5.536;2023-04-25T02:22:08;100958.28;;;6.27;100.00
59787;BME280;45672;51.612;5.536;2023-04-25T02:24:33;100957.66;;;6.24;100.00
59787;BME280;45672;51.612;5.536;2023-04-25T02:27:00;100958.66;;;6.23;100.00
59787;BME280;45672;51.612;5.536;2023-04-25T02:29:25;100966.66;;;6.21;100.00
59787;BME280;45672;51.612;5.536;2023-04-25T02:31:50;100965.25;;;6.17;100.00
59787;BME280;45672;51.612;5.536;2023-04-25T02:34:16;100960.47;;;6.11;100.00
59787;BME280;45672;51.612;5.536;2023-04-25T02:36:41;100955.69;;;6.04;100.00
59787;BME280;45672;51.612;5.536;2023-04-25T02:39:06;100965.88;;;5.98;100.00
59787;BME280;45672;51.612;5.536;2023-04-25T02:41:32;100945.22;;;5.92;100.00
59787;BME280;45672;51.612;5.536;2023-04-25T02:43:57;100962.63;;;5.94;100.00
59787;BME280;45672;51.612;5.536;2023-04-25T02:46:22;100965.75;;;5.88;100.00
59787;BME280;45672;51.612;5.536;2023-04-25T02:48:48;100964.78;;;5.89;100.00
59787;BME280;45672;51.612;5.536;2023-04-25T02:51:13;100969.44;;;5.85;100.00
59787;BME280;45672;51.612;5.536;2023-04-25T02:53:39;100957.56;;;5.80;100.00
59787;BME280;45672;51.612;5.536;2023-04-25T02:56:04;100963.97;;;5.77;100.00
59787;BME280;45672;51.612;5.536;2023-04-25T02:58:30;100965.88;;;5.75;100.00
59787;BME280;45672;51.612;5.536;2023-04-25T03:00:55;100968.63;;;5.74;100.00
59787;BME280;45672;51.612;5.536;2023-04-25T03:03:21;100968.88;;;5.70;100.00
59787;BME280;45672;51.612;5.536;2023-04-25T03:05:50;100964.56;;;5.69;100.00
59787;BME280;45672;51.612;5.536;2023-04-25T03:08:16;100965.75;;;5.65;100.00
59787;BME280;45672;51.612;5.536;2023-04-25T03:10:43;100963.34;;;5.62;100.00
59787;BME280;45672;51.612;5.536;2023-04-25T03:13:09;100951.97;;;5.62;100.00
59787;BME280;45672;51.612;5.536;2023-04-25T03:15:35;100961.91;;;5.58;100.00
59787;BME280;45672;51.612;5.536;2023-04-25T03:18:01;100969.81;;;5.58;100.00
59787;BME280;45672;51.612;5.536;2023-04-25T03:20:26;100964.66;;;5.57;100.00
59787;BME280;45672;51.612;5.536;2023-04-25T03:22:52;100971.16;;;5.64;100.00
59787;BME280;45672;51.612;5.536;2023-04-25T03:25:17;100966.34;;;5.69;100.00
59787;BME280;45672;51.612;5.536;2023-04-25T03:27:43;100967.69;;;5.75;100.00
59787;BME280;45672;51.612;5.536;2023-04-25T03:30:08;100965.63;;;5.78;100.00
59787;BME280;45672;51.612;5.536;2023-04-25T03:32:34;100964.28;;;5.84;100.00
59787;BME280;45672;51.612;5.536;2023-04-25T03:34:59;100961.31;;;5.89;100.00
59787;BME280;45672;51.612;5.536;2023-04-25T03:37:25;100972.47;;;5.92;100.00
59787;BME280;45672;51.612;5.536;2023-04-25T03:39:53;100975.72;;;5.96;100.00
59787;BME280;45672;51.612;5.536;2023-04-25T03:42:18;100969.56;;;5.95;100.00
59787;BME280;45672;51.612;5.536;2023-04-25T03:44:44;100965.28;;;5.94;100.00
59787;BME280;45672;51.612;5.536;2023-04-25T03:47:10;100972.09;;;5.97;100.00
59787;BME280;45672;51.612;5.536;2023-04-25T03:49:36;100982.22;;;6.03;100.00
59787;BME280;45672;51.612;5.536;2023-04-25T03:52:02;100973.69;;;5.99;100.00
59787;BME280;45672;51.612;5.536;2023-04-25T03:54:28;100973.06;;;5.96;100.00
59787;BME280;45672;51.612;5.536;2023-04-25T03:56:58;100967.91;;;5.94;100.00
59787;BME280;45672;51.612;5.536;2023-04-25T03:59:23;100963.09;;;5.88;100.00
59787;BME280;45672;51.612;5.536;2023-04-25T04:01:50;100971.75;;;5.90;100.00
59787;BME280;45672;51.612;5.536;2023-04-25T04:04:21;100975.22;;;5.91;100.00
59787;BME280;45672;51.612;5.536;2023-04-25T04:06:56;100975.22;;;5.91;100.00
59787;BME280;45672;51.612;5.536;2023-04-25T04:09:21;100976.66;;;5.95;100.00
59787;BME280;45672;51.612;5.536;2023-04-25T04:11:46;100989.53;;;5.99;100.00
59787;BME280;45672;51.612;5.536;2023-04-25T04:14:12;100997.44;;;5.99;100.00
59787;BME280;45672;51.612;5.536;2023-04-25T04:16:37;100997.56;;;5.98;100.00
59787;BME280;45672;51.612;5.536;2023-04-25T04:19:02;100998.31;;;6.00;100.00
59787;BME280;45672;51.612;5.536;2023-04-25T04:21:31;101002.03;;;5.97;100.00
59787;BME280;45672;51.612;5.536;2023-04-25T04:23:57;100994.09;;;5.97;100.00
59787;BME280;45672;51.612;5.536;2023-04-25T04:26:23;100991.81;;;5.93;100.00
59787;BME280;45672;51.612;5.536;2023-04-25T04:28:54;100993.84;;;5.89;100.00
59787;BME280;45672;51.612;5.536;2023-04-25T04:31:22;101003.91;;;5.84;100.00
59787;BME280;45672;51.612;5.536;2023-04-25T04:33:49;101001.75;;;5.78;100.00
59787;BME280;45672;51.612;5.536;2023-04-25T04:36:14;101013.25;;;5.77;100.00
59787;BME280;45672;51.612;5.536;2023-04-25T04:38:40;101016.78;;;5.77;100.00
59787;BME280;45672;51.612;5.536;2023-04-25T04:41:06;101010.63;;;5.77;100.00
59787;BME280;45672;51.612;5.536;2023-04-25T04:43:31;101015.66;;;5.80;100.00
59787;BME280;45672;51.612;5.536;2023-04-25T04:46:00;101015.66;;;5.80;100.00
59787;BME280;45672;51.612;5.536;2023-04-25T04:48:25;101019.63;;;5.85;100.00
59787;BME280;45672;51.612;5.536;2023-04-25T04:50:51;101016.66;;;5.90;100.00
59787;BME280;45672;51.612;5.536;2023-04-25T04:53:16;101022.25;;;5.97;100.00
59787;BME280;45672;51.612;5.536;2023-04-25T04:55:41;101019.31;;;6.01;100.00
59787;BME280;45672;51.612;5.536;2023-04-25T04:58:08;101023.28;;;6.07;100.00
59787;BME280;45672;51.612;5.536;2023-04-25T05:00:33;101025.41;;;6.13;100.00
59787;BME280;45672;51.612;5.536;2023-04-25T05:02:58;101028.69;;;6.17;100.00
59787;BME280;45672;51.612;5.536;2023-04-25T05:05:24;101039.56;;;6.24;100.00
59787;BME280;45672;51.612;5.536;2023-04-25T05:07:49;101046.16;;;6.29;100.00
59787;BME280;45672;51.612;5.536;2023-04-25T05:10:14;101047.59;;;6.33;100.00
59787;BME280;45672;51.612;5.536;2023-04-25T05:12:40;101049.75;;;6.39;100.00
59787;BME280;45672;51.612;5.536;2023-04-25T05:15:06;101047.84;;;6.42;100.00
59787;BME280;45672;51.612;5.536;2023-04-25T05:17:31;101054.69;;;6.44;100.00
59787;BME280;45672;51.612;5.536;2023-04-25T05:19:57;101057.09;;;6.47;100.00
59787;BME280;45672;51.612;5.536;2023-04-25T05:22:23;101064.50;;;6.53;100.00
59787;BME280;45672;51.612;5.536;2023-04-25T05:24:48;101068.25;;;6.51;100.00
59787;BME280;45672;51.612;5.536;2023-04-25T05:27:16;101065.50;;;6.52;100.00
59787;BME280;45672;51.612;5.536;2023-04-25T05:29:42;101070.16;;;6.60;100.00
59787;BME280;45672;51.612;5.536;2023-04-25T05:32:07;101076.41;;;6.59;100.00
59787;BME280;45672;51.612;5.536;2023-04-25T05:34:33;101089.03;;;6.67;100.00
59787;BME280;45672;51.612;5.536;2023-04-25T05:36:58;101069.91;;;6.63;100.00
59787;BME280;45672;51.612;5.536;2023-04-25T05:39:24;101092.97;;;6.72;100.00
59787;BME280;45672;51.612;5.536;2023-04-25T05:41:49;101089.13;;;6.77;100.00
59787;BME280;45672;51.612;5.536;2023-04-25T05:44:14;101092.22;;;6.82;100.00
59787;BME280;45672;51.612;5.536;2023-04-25T05:46:41;101088.63;;;6.83;98.41
59787;BME280;45672;51.612;5.536;2023-04-25T05:49:06;101094.38;;;6.88;100.00
59787;BME280;45672;51.612;5.536;2023-04-25T05:51:32;101086.63;;;6.96;99.16
59787;BME280;45672;51.612;5.536;2023-04-25T05:53:57;101087.81;;;7.03;99.03
59787;BME280;45672;51.612;5.536;2023-04-25T05:56:24;101096.91;;;7.11;99.21
59787;BME280;45672;51.612;5.536;2023-04-25T05:58:49;101107.28;;;7.14;98.05
59787;BME280;45672;51.612;5.536;2023-04-25T06:01:15;101102.91;;;7.24;97.61
59787;BME280;45672;51.612;5.536;2023-04-25T06:03:40;101104.06;;;7.31;95.95
59787;BME280;45672;51.612;5.536;2023-04-25T06:06:08;101108.41;;;7.32;95.81
59787;BME280;45672;51.612;5.536;2023-04-25T06:08:33;101107.06;;;7.38;95.26
59787;BME280;45672;51.612;5.536;2023-04-25T06:10:59;101118.22;;;7.41;95.55
59787;BME280;45672;51.612;5.536;2023-04-25T06:13:24;101113.94;;;7.50;94.62
59787;BME280;45672;51.612;5.536;2023-04-25T06:15:49;101112.84;;;7.53;94.37
59787;BME280;45672;51.612;5.536;2023-04-25T06:18:15;101121.19;;;7.48;93.42
59787;BME280;45672;51.612;5.536;2023-04-25T06:20:40;101116.88;;;7.47;93.09
59787;BME280;45672;51.612;5.536;2023-04-25T06:23:05;101115.31;;;7.45;91.30
59787;BME280;45672;51.612;5.536;2023-04-25T06:25:31;101117.94;;;7.45;91.11
59787;BME280;45672;51.612;5.536;2023-04-25T06:27:56;101121.84;;;7.62;89.96
59787;BME280;45672;51.612;5.536;2023-04-25T06:30:21;101114.22;;;7.89;89.52
59787;BME280;45672;51.612;5.536;2023-04-25T06:32:51;101118.59;;;8.00;88.19
59787;BME280;45672;51.612;5.536;2023-04-25T06:35:16;101125.66;;;8.21;88.00
59787;BME280;45672;51.612;5.536;2023-04-25T06:37:41;101131.75;;;8.73;84.97
59787;BME280;45672;51.612;5.536;2023-04-25T06:40:07;101128.47;;;9.40;82.37
59787;BME280;45672;51.612;5.536;2023-04-25T06:42:48;101126.31;;;10.30;85.33
59787;BME280;45672;51.612;5.536;2023-04-25T06:45:13;101137.31;;;11.00;77.42
59787;BME280;45672;51.612;5.536;2023-04-25T06:47:41;101145.00;;;11.58;71.99
59787;BME280;45672;51.612;5.536;2023-04-25T06:50:07;101146.69;;;12.03;70.48
59787;BME280;45672;51.612;5.536;2023-04-25T06:52:32;101156.66;;;12.62;64.87
59787;BME280;45672;51.612;5.536;2023-04-25T06:54:57;101149.94;;;13.08;64.71
59787;BME280;45672;51.612;5.536;2023-04-25T06:57:23;101156.69;;;13.54;61.41
59787;BME280;45672;51.612;5.536;2023-04-25T06:59:48;101165.22;;;13.90;58.51
59787;BME280;45672;51.612;5.536;2023-04-25T07:02:13;101167.03;;;14.06;57.22
59787;BME280;45672;51.612;5.536;2023-04-25T07:04:39;101171.31;;;14.24;56.28
59787;BME280;45672;51.612;5.536;2023-04-25T07:07:06;101164.38;;;14.62;54.00
59787;BME280;45672;51.612;5.536;2023-04-25T07:09:31;101167.91;;;14.94;53.43
59787;BME280;45672;51.612;5.536;2023-04-25T07:11:59;101168.28;;;15.38;50.66
59787;BME280;45672;51.612;5.536;2023-04-25T07:14:26;101173.16;;;15.42;50.55
59787;BME280;45672;51.612;5.536;2023-04-25T07:16:51;101168.28;;;15.14;50.37
59787;BME280;45672;51.612;5.536;2023-04-25T07:19:28;101174.97;;;15.19;49.53
59787;BME280;45672;51.612;5.536;2023-04-25T07:21:54;101173.09;;;15.89;49.38
59787;BME280;45672;51.612;5.536;2023-04-25T07:24:20;101179.81;;;16.52;47.47
59787;BME280;45672;51.612;5.536;2023-04-25T07:26:45;101186.41;;;17.16;46.76
59787;BME280;45672;51.612;5.536;2023-04-25T07:29:10;101193.28;;;17.62;45.28
59787;BME280;45672;51.612;5.536;2023-04-25T07:31:36;101192.94;;;17.72;44.79
59787;BME280;45672;51.612;5.536;2023-04-25T07:34:01;101197.75;;;18.26;43.12
59787;BME280;45672;51.612;5.536;2023-04-25T07:36:26;101201.97;;;17.86;42.88
59787;BME280;45672;51.612;5.536;2023-04-25T07:38:52;101210.09;;;17.06;42.91
59787;BME280;45672;51.612;5.536;2023-04-25T07:41:17;101204.69;;;17.43;42.36
59787;BME280;45672;51.612;5.536;2023-04-25T07:43:43;101210.91;;;18.15;41.93
59787;BME280;45672;51.612;5.536;2023-04-25T07:46:08;101216.34;;;18.21;41.00
59787;BME280;45672;51.612;5.536;2023-04-25T07:48:33;101221.63;;;18.36;40.75
59787;BME280;45672;51.612;5.536;2023-04-25T07:50:58;101226.94;;;18.23;37.75
59787;BME280;45672;51.612;5.536;2023-04-25T07:53:24;101221.88;;;17.27;39.35
59787;BME280;45672;51.612;5.536;2023-04-25T07:55:50;101223.00;;;16.51;41.83
59787;BME280;45672;51.612;5.536;2023-04-25T07:58:15;101222.16;;;16.80;42.24
59787;BME280;45672;51.612;5.536;2023-04-25T08:00:40;101224.81;;;17.68;39.67
59787;BME280;45672;51.612;5.536;2023-04-25T08:03:06;101225.75;;;17.82;37.99
59787;BME280;45672;51.612;5.536;2023-04-25T08:05:32;101222.06;;;17.62;39.49
59787;BME280;45672;51.612;5.536;2023-04-25T08:07:58;101234.84;;;16.71;39.41
59787;BME280;45672;51.612;5.536;2023-04-25T08:10:33;101241.78;;;16.81;43.73
59787;BME280;45672;51.612;5.536;2023-04-25T08:12:58;101244.84;;;16.78;41.30
59787;BME280;45672;51.612;5.536;2023-04-25T08:15:24;101237.81;;;16.62;42.00
59787;BME280;45672;51.612;5.536;2023-04-25T08:17:50;101241.78;;;16.36;42.05
59787;BME280;45672;51.612;5.536;2023-04-25T08:20:16;101249.94;;;16.05;44.29
59787;BME280;45672;51.612;5.536;2023-04-25T08:22:42;101248.78;;;15.61;41.84
59787;BME280;45672;51.612;5.536;2023-04-25T08:25:07;101250.66;;;14.81;44.90
59787;BME280;45672;51.612;5.536;2023-04-25T08:27:36;101243.84;;;14.78;44.97
59787;BME280;45672;51.612;5.536;2023-04-25T08:30:05;101248.84;;;14.81;46.32
59787;BME280;45672;51.612;5.536;2023-04-25T08:32:30;101256.75;;;15.14;46.36
59787;BME280;45672;51.612;5.536;2023-04-25T08:34:56;101256.72;;;15.46;44.82
59787;BME280;45672;51.612;5.536;2023-04-25T08:37:21;101258.31;;;15.32;44.02
59787;BME280;45672;51.612;5.536;2023-04-25T08:39:47;101257.19;;;15.26;43.43
59787;BME280;45672;51.612;5.536;2023-04-25T08:42:17;101255.41;;;15.42;43.11
59787;BME280;45672;51.612;5.536;2023-04-25T08:44:44;101272.25;;;15.59;43.10
59787;BME280;45672;51.612;5.536;2023-04-25T08:47:10;101272.53;;;15.95;43.64
59787;BME280;45672;51.612;5.536;2023-04-25T08:49:35;101271.13;;;17.64;40.62
59787;BME280;45672;51.612;5.536;2023-04-25T08:52:03;101272.13;;;19.39;37.86
59787;BME280;45672;51.612;5.536;2023-04-25T08:54:31;101281.19;;;19.93;35.29
59787;BME280;45672;51.612;5.536;2023-04-25T08:56:57;101287.44;;;20.01;35.52
59787;BME280;45672;51.612;5.536;2023-04-25T08:59:32;101293.38;;;18.72;36.05
59787;BME280;45672;51.612;5.536;2023-04-25T09:02:11;101308.28;;;17.53;38.37
59787;BME280;45672;51.612;5.536;2023-04-25T09:04:39;101302.03;;;16.71;40.31
59787;BME280;45672;51.612;5.536;2023-04-25T09:07:05;101307.94;;;15.91;39.90
59787;BME280;45672;51.612;5.536;2023-04-25T09:09:31;101312.47;;;15.27;42.77
59787;BME280;45672;51.612;5.536;2023-04-25T09:12:00;101319.00;;;15.25;43.48
59787;BME280;45672;51.612;5.536;2023-04-25T09:14:27;101323.31;;;15.03;44.17
59787;BME280;45672;51.612;5.536;2023-04-25T09:19:35;101325.81;;;18.29;40.27
59787;BME280;45672;51.612;5.536;2023-04-25T09:22:04;101328.94;;;19.24;37.03
59787;BME280;45672;51.612;5.536;2023-04-25T09:24:34;101339.19;;;20.71;33.84
59787;BME280;45672;51.612;5.536;2023-04-25T09:27:09;101345.41;;;20.52;33.59
59787;BME280;45672;51.612;5.536;2023-04-25T09:29:41;101372.31;;;18.16;36.93
59787;BME280;45672;51.612;5.536;2023-04-25T09:34:41;101391.25;;;14.03;50.57
59787;BME280;45672;51.612;5.536;2023-04-25T09:37:11;101381.44;;;12.65;51.12
59787;BME280;45672;51.612;5.536;2023-04-25T09:39:38;101375.13;;;12.12;56.87
59787;BME280;45672;51.612;5.536;2023-04-25T09:42:04;101367.25;;;11.93;58.66
59787;BME280;45672;51.612;5.536;2023-04-25T09:44:29;101370.13;;;11.81;58.69
59787;BME280;45672;51.612;5.536;2023-04-25T09:46:55;101364.03;;;11.89;60.69
59787;BME280;45672;51.612;5.536;2023-04-25T09:49:20;101368.19;;;12.19;58.58
59787;BME280;45672;51.612;5.536;2023-04-25T09:51:56;101370.00;;;13.85;53.91
59787;BME280;45672;51.612;5.536;2023-04-25T09:54:23;101369.44;;;17.81;47.28
59787;BME280;45672;51.612;5.536;2023-04-25T09:56:51;101373.47;;;20.91;36.78
59787;BME280;45672;51.612;5.536;2023-04-25T09:59:19;101373.09;;;22.80;33.08
59787;BME280;45672;51.612;5.536;2023-04-25T10:01:45;101369.50;;;24.45;29.51
59787;BME280;45672;51.612;5.536;2023-04-25T10:04:11;101372.44;;;25.67;29.44
59787;BME280;45672;51.612;5.536;2023-04-25T10:06:37;101372.63;;;26.23;26.64
59787;BME280;45672;51.612;5.536;2023-04-25T10:09:03;101366.84;;;26.71;26.33
59787;BME280;45672;51.612;5.536;2023-04-25T10:11:30;101377.34;;;26.79;24.22
59787;BME280;45672;51.612;5.536;2023-04-25T10:13:57;101376.59;;;26.66;23.30
59787;BME280;45672;51.612;5.536;2023-04-25T10:16:22;101372.66;;;25.94;25.24
59787;BME280;45672;51.612;5.536;2023-04-25T10:18:49;101374.06;;;26.26;26.35
59787;BME280;45672;51.612;5.536;2023-04-25T10:21:16;101374.47;;;27.30;24.06
59787;BME280;45672;51.612;5.536;2023-04-25T10:23:42;101361.97;;;28.11;23.03
59787;BME280;45672;51.612;5.536;2023-04-25T10:26:08;101365.44;;;26.85;24.63
59787;BME280;45672;51.612;5.536;2023-04-25T10:28:59;101355.28;;;24.43;30.40
59787;BME280;45672;51.612;5.536;2023-04-25T10:31:26;101346.06;;;21.84;29.67
59787;BME280;45672;51.612;5.536;2023-04-25T10:33:51;101349.34;;;20.42;33.33
59787;BME280;45672;51.612;5.536;2023-04-25T10:36:21;101347.06;;;19.44;31.72
59787;BME280;45672;51.612;5.536;2023-04-25T10:38:48;101354.28;;;18.38;33.31
59787;BME280;45672;51.612;5.536;2023-04-25T10:41:17;101356.53;;;17.91;34.27
59787;BME280;45672;51.612;5.536;2023-04-25T10:43:45;101352.19;;;17.39;35.05
59787;BME280;45672;51.612;5.536;2023-04-25T10:46:15;101350.69;;;17.36;36.30
59787;BME280;45672;51.612;5.536;2023-04-25T10:49:08;101357.84;;;17.44;37.65
59787;BME280;45672;51.612;5.536;2023-04-25T10:51:35;101355.63;;;17.18;36.12
59787;BME280;45672;51.612;5.536;2023-04-25T10:54:05;101361.59;;;16.60;36.19
59787;BME280;45672;51.612;5.536;2023-04-25T10:56:41;101366.88;;;16.07;38.05
59787;BME280;45672;51.612;5.536;2023-04-25T10:59:17;101374.13;;;15.27;39.71
59787;BME280;45672;51.612;5.536;2023-04-25T11:04:23;101398.84;;;13.56;45.49
59787;BME280;45672;51.612;5.536;2023-04-25T11:09:28;101399.75;;;12.42;47.81
59787;BME280;45672;51.612;5.536;2023-04-25T11:11:57;101396.41;;;12.04;49.93
59787;BME280;45672;51.612;5.536;2023-04-25T11:14:23;101401.59;;;12.05;51.35
59787;BME280;45672;51.612;5.536;2023-04-25T11:16:58;101399.38;;;12.19;52.17
59787;BME280;45672;51.612;5.536;2023-04-25T11:19:25;101406.84;;;12.51;51.94
59787;BME280;45672;51.612;5.536;2023-04-25T11:21:58;101407.88;;;13.03;51.46
59787;BME280;45672;51.612;5.536;2023-04-25T11:24:28;101406.53;;;13.59;49.39
59787;BME280;45672;51.612;5.536;2023-04-25T11:26:54;101409.00;;;14.04;47.67
59787;BME280;45672;51.612;5.536;2023-04-25T11:29:22;101404.88;;;14.34;46.04
59787;BME280;45672;51.612;5.536;2023-04-25T11:31:48;101404.22;;;14.65;46.70
59787;BME280;45672;51.612;5.536;2023-04-25T11:34:17;101408.06;;;14.62;46.11
59787;BME280;45672;51.612;5.536;2023-04-25T11:36:44;101406.72;;;14.58;44.37
59787;BME280;45672;51.612;5.536;2023-04-25T11:39:10;101405.53;;;14.61;44.67
59787;BME280;45672;51.612;5.536;2023-04-25T11:41:37;101411.06;;;14.51;42.31
59787;BME280;45672;51.612;5.536;2023-04-25T11:44:03;101405.22;;;14.72;43.80
59787;BME280;45672;51.612;5.536;2023-04-25T11:46:28;101402.25;;;14.75;42.11
59787;BME280;45672;51.612;5.536;2023-04-25T11:48:55;101403.41;;;14.64;43.85
59787;BME280;45672;51.612;5.536;2023-04-25T11:51:21;101402.38;;;14.57;42.59
59787;BME280;45672;51.612;5.536;2023-04-25T11:53:46;101407.69;;;14.32;41.82
59787;BME280;45672;51.612;5.536;2023-04-25T11:56:12;101410.53;;;14.06;42.25
59787;BME280;45672;51.612;5.536;2023-04-25T11:59:00;101410.19;;;14.09;43.45
59787;BME280;45672;51.612;5.536;2023-04-25T12:01:32;101410.97;;;13.85;42.07
59787;BME280;45672;51.612;5.536;2023-04-25T12:04:09;101411.63;;;13.79;42.21
59787;BME280;45672;51.612;5.536;2023-04-25T12:06:37;101400.53;;;13.66;43.69
59787;BME280;45672;51.612;5.536;2023-04-25T12:09:08;101408.38;;;13.67;41.81
59787;BME280;45672;51.612;5.536;2023-04-25T12:11:44;101418.31;;;13.83;41.69
59787;BME280;45672;51.612;5.536;2023-04-25T12:14:10;101411.00;;;13.93;41.47
59787;BME280;45672;51.612;5.536;2023-04-25T12:16:46;101413.59;;;13.77;42.45
59787;BME280;45672;51.612;5.536;2023-04-25T12:19:19;101412.00;;;13.50;43.06
59787;BME280;45672;51.612;5.536;2023-04-25T12:21:45;101408.94;;;13.36;42.30
59787;BME280;45672;51.612;5.536;2023-04-25T12:24:22;101411.63;;;13.36;38.82
59787;BME280;45672;51.612;5.536;2023-04-25T12:26:52;101413.72;;;13.33;40.19
59787;BME280;45672;51.612;5.536;2023-04-25T12:29:22;101409.53;;;13.30;39.48
59787;BME280;45672;51.612;5.536;2023-04-25T12:31:50;101414.84;;;13.22;37.25
59787;BME280;45672;51.612;5.536;2023-04-25T12:34:16;101421.78;;;13.15;36.24
59787;BME280;45672;51.612;5.536;2023-04-25T12:36:41;101422.97;;;13.12;38.29
59787;BME280;45672;51.612;5.536;2023-04-25T12:39:07;101422.03;;;12.95;39.05
59787;BME280;45672;51.612;5.536;2023-04-25T12:41:33;101434.59;;;13.03;41.79
59787;BME280;45672;51.612;5.536;2023-04-25T12:43:58;101427.78;;;13.08;40.03
59787;BME280;45672;51.612;5.536;2023-04-25T12:46:24;101419.28;;;13.13;40.33
59787;BME280;45672;51.612;5.536;2023-04-25T12:48:49;101431.78;;;13.31;44.54
59787;BME280;45672;51.612;5.536;2023-04-25T12:51:15;101442.66;;;13.11;45.20
59787;BME280;45672;51.612;5.536;2023-04-25T12:53:41;101441.66;;;12.86;46.24
59787;BME280;45672;51.612;5.536;2023-04-25T12:56:07;101448.38;;;12.72;46.44
59787;BME280;45672;51.612;5.536;2023-04-25T12:58:33;101445.19;;;12.68;46.69